Comodoro Rivadavia, Argentina
Current Conditions -  °F | °C
As of 3:00 PM on Thursday 29 Jan 2015 (Local Time) from SAVC Reporting Station
Clear Clear  
Wind Chill: 75°   Ceiling: Unl
Heat Index: 75°   Visibility: 6mi
Dew Point: 50°   Wind: 24mph
Humidity: 41%   Direction: 50°NE
Pressure: 29.88"   Gusts: NA
Location:  45.86°S, 67.49°W
Report Text: SAVC 291800Z 05021KT CAVOK 24/10 Q1012
Loading
Personal Weather Stations






























Interactive Weather Map New forecast layout! Learn more

10-Day Weather Forecast

Advertisements
Track Severe Weather on mobile